sensor_id;sensor_type;location;lat;lon;timestamp;P1;durP1;ratioP1;P2;durP2;ratioP2
47896;SDS011;39629;51.400;5.494;2024-02-21T00:02:32;14.43;;;4.53;;
47896;SDS011;39629;51.400;5.494;2024-02-21T00:07:34;13.85;;;4.05;;
47896;SDS011;39629;51.400;5.494;2024-02-21T00:12:37;13.93;;;3.92;;
47896;SDS011;39629;51.400;5.494;2024-02-21T00:17:39;17.52;;;4.05;;
47896;SDS011;39629;51.400;5.494;2024-02-21T00:22:41;10.15;;;3.95;;
47896;SDS011;39629;51.400;5.494;2024-02-21T00:27:44;14.95;;;3.92;;
47896;SDS011;39629;51.400;5.494;2024-02-21T00:32:45;12.45;;;3.70;;
47896;SDS011;39629;51.400;5.494;2024-02-21T00:37:47;13.00;;;3.63;;
47896;SDS011;39629;51.400;5.494;2024-02-21T00:42:50;15.23;;;3.65;;
47896;SDS011;39629;51.400;5.494;2024-02-21T00:47:52;13.95;;;3.83;;
47896;SDS011;39629;51.400;5.494;2024-02-21T00:52:53;15.82;;;3.83;;
47896;SDS011;39629;51.400;5.494;2024-02-21T00:57:56;12.30;;;3.72;;
47896;SDS011;39629;51.400;5.494;2024-02-21T01:02:58;13.82;;;3.75;;
47896;SDS011;39629;51.400;5.494;2024-02-21T01:08:00;14.35;;;3.67;;
47896;SDS011;39629;51.400;5.494;2024-02-21T01:13:03;10.18;;;3.40;;
47896;SDS011;39629;51.400;5.494;2024-02-21T01:18:06;15.80;;;3.85;;
47896;SDS011;39629;51.400;5.494;2024-02-21T01:23:07;10.20;;;3.13;;
47896;SDS011;39629;51.400;5.494;2024-02-21T01:28:10;13.30;;;3.50;;
47896;SDS011;39629;51.400;5.494;2024-02-21T01:33:12;15.50;;;4.07;;
47896;SDS011;39629;51.400;5.494;2024-02-21T01:38:14;14.60;;;3.65;;
47896;SDS011;39629;51.400;5.494;2024-02-21T01:43:17;13.75;;;3.53;;
47896;SDS011;39629;51.400;5.494;2024-02-21T01:48:21;10.40;;;3.60;;
47896;SDS011;39629;51.400;5.494;2024-02-21T01:53:25;11.75;;;3.65;;
47896;SDS011;39629;51.400;5.494;2024-02-21T01:58:32;14.50;;;3.80;;
47896;SDS011;39629;51.400;5.494;2024-02-21T02:03:38;14.07;;;3.22;;
47896;SDS011;39629;51.400;5.494;2024-02-21T02:08:40;12.52;;;3.00;;
47896;SDS011;39629;51.400;5.494;2024-02-21T02:13:43;10.05;;;2.83;;
47896;SDS011;39629;51.400;5.494;2024-02-21T02:18:45;10.15;;;3.55;;
47896;SDS011;39629;51.400;5.494;2024-02-21T02:23:48;11.80;;;3.47;;
47896;SDS011;39629;51.400;5.494;2024-02-21T02:28:50;13.97;;;3.50;;
47896;SDS011;39629;51.400;5.494;2024-02-21T02:33:51;9.02;;;3.20;;
47896;SDS011;39629;51.400;5.494;2024-02-21T02:38:55;8.80;;;3.75;;
47896;SDS011;39629;51.400;5.494;2024-02-21T02:43:56;10.55;;;2.85;;
47896;SDS011;39629;51.400;5.494;2024-02-21T02:48:58;9.10;;;2.83;;
47896;SDS011;39629;51.400;5.494;2024-02-21T02:54:01;13.05;;;3.08;;
47896;SDS011;39629;51.400;5.494;2024-02-21T02:59:03;9.23;;;3.30;;
47896;SDS011;39629;51.400;5.494;2024-02-21T03:04:05;10.57;;;2.80;;
47896;SDS011;39629;51.400;5.494;2024-02-21T03:09:08;6.65;;;2.70;;
47896;SDS011;39629;51.400;5.494;2024-02-21T03:14:10;6.45;;;2.33;;
47896;SDS011;39629;51.400;5.494;2024-02-21T03:19:12;9.02;;;2.72;;
47896;SDS011;39629;51.400;5.494;2024-02-21T03:24:15;10.27;;;2.90;;
47896;SDS011;39629;51.400;5.494;2024-02-21T03:29:17;8.18;;;2.78;;
47896;SDS011;39629;51.400;5.494;2024-02-21T03:34:19;11.05;;;3.05;;
47896;SDS011;39629;51.400;5.494;2024-02-21T03:39:22;11.43;;;3.53;;
47896;SDS011;39629;51.400;5.494;2024-02-21T03:44:24;11.57;;;3.35;;
47896;SDS011;39629;51.400;5.494;2024-02-21T03:49:26;13.43;;;3.70;;
47896;SDS011;39629;51.400;5.494;2024-02-21T03:54:29;11.60;;;3.80;;
47896;SDS011;39629;51.400;5.494;2024-02-21T03:59:31;17.63;;;4.32;;
47896;SDS011;39629;51.400;5.494;2024-02-21T04:04:33;12.55;;;4.15;;
47896;SDS011;39629;51.400;5.494;2024-02-21T04:09:36;12.27;;;3.95;;
47896;SDS011;39629;51.400;5.494;2024-02-21T04:14:38;13.05;;;4.45;;
47896;SDS011;39629;51.400;5.494;2024-02-21T04:19:39;11.15;;;4.05;;
47896;SDS011;39629;51.400;5.494;2024-02-21T04:24:43;13.48;;;4.35;;
47896;SDS011;39629;51.400;5.494;2024-02-21T04:29:44;11.60;;;4.05;;
47896;SDS011;39629;51.400;5.494;2024-02-21T04:34:46;13.18;;;4.03;;
47896;SDS011;39629;51.400;5.494;2024-02-21T04:39:49;11.70;;;4.47;;
47896;SDS011;39629;51.400;5.494;2024-02-21T04:44:52;14.80;;;4.22;;
47896;SDS011;39629;51.400;5.494;2024-02-21T04:49:53;13.40;;;4.68;;
47896;SDS011;39629;51.400;5.494;2024-02-21T04:54:57;13.95;;;5.57;;
47896;SDS011;39629;51.400;5.494;2024-02-21T04:59:58;11.70;;;4.30;;
47896;SDS011;39629;51.400;5.494;2024-02-21T05:05:00;10.25;;;4.43;;
47896;SDS011;39629;51.400;5.494;2024-02-21T05:10:04;14.50;;;4.70;;
47896;SDS011;39629;51.400;5.494;2024-02-21T05:15:08;17.83;;;5.15;;
47896;SDS011;39629;51.400;5.494;2024-02-21T05:20:10;13.48;;;5.13;;
47896;SDS011;39629;51.400;5.494;2024-02-21T05:25:14;11.45;;;4.45;;
47896;SDS011;39629;51.400;5.494;2024-02-21T05:30:15;15.88;;;4.57;;
47896;SDS011;39629;51.400;5.494;2024-02-21T05:35:18;19.00;;;4.95;;
47896;SDS011;39629;51.400;5.494;2024-02-21T05:40:23;15.90;;;4.50;;
47896;SDS011;39629;51.400;5.494;2024-02-21T05:45:25;14.45;;;5.60;;
47896;SDS011;39629;51.400;5.494;2024-02-21T05:50:28;12.65;;;4.50;;
47896;SDS011;39629;51.400;5.494;2024-02-21T05:55:33;13.83;;;4.93;;
47896;SDS011;39629;51.400;5.494;2024-02-21T06:00:36;11.88;;;4.28;;
47896;SDS011;39629;51.400;5.494;2024-02-21T06:05:39;11.90;;;4.13;;
47896;SDS011;39629;51.400;5.494;2024-02-21T06:10:43;13.23;;;4.13;;
47896;SDS011;39629;51.400;5.494;2024-02-21T06:15:46;14.77;;;4.35;;
47896;SDS011;39629;51.400;5.494;2024-02-21T06:20:48;12.68;;;4.30;;
47896;SDS011;39629;51.400;5.494;2024-02-21T06:25:52;10.68;;;4.38;;
47896;SDS011;39629;51.400;5.494;2024-02-21T06:30:55;10.02;;;4.40;;
47896;SDS011;39629;51.400;5.494;2024-02-21T06:35:56;11.05;;;4.35;;
47896;SDS011;39629;51.400;5.494;2024-02-21T06:41:00;13.05;;;4.65;;
47896;SDS011;39629;51.400;5.494;2024-02-21T06:46:03;15.32;;;5.03;;
47896;SDS011;39629;51.400;5.494;2024-02-21T06:51:05;13.88;;;4.47;;
47896;SDS011;39629;51.400;5.494;2024-02-21T06:56:08;19.60;;;5.32;;
47896;SDS011;39629;51.400;5.494;2024-02-21T07:01:09;12.07;;;4.65;;
47896;SDS011;39629;51.400;5.494;2024-02-21T07:06:12;11.70;;;4.90;;
47896;SDS011;39629;51.400;5.494;2024-02-21T07:11:15;11.02;;;4.28;;
47896;SDS011;39629;51.400;5.494;2024-02-21T07:16:17;11.80;;;4.43;;
47896;SDS011;39629;51.400;5.494;2024-02-21T07:21:18;10.23;;;4.50;;
47896;SDS011;39629;51.400;5.494;2024-02-21T07:26:22;11.90;;;4.28;;
47896;SDS011;39629;51.400;5.494;2024-02-21T07:31:23;12.68;;;4.45;;
47896;SDS011;39629;51.400;5.494;2024-02-21T07:36:27;14.68;;;4.28;;
47896;SDS011;39629;51.400;5.494;2024-02-21T07:41:32;11.35;;;3.63;;
47896;SDS011;39629;51.400;5.494;2024-02-21T07:46:34;11.75;;;3.50;;
47896;SDS011;39629;51.400;5.494;2024-02-21T07:51:36;8.32;;;3.80;;
47896;SDS011;39629;51.400;5.494;2024-02-21T07:56:39;7.72;;;3.97;;
47896;SDS011;39629;51.400;5.494;2024-02-21T08:01:41;9.68;;;3.45;;
47896;SDS011;39629;51.400;5.494;2024-02-21T08:06:44;7.68;;;3.53;;
47896;SDS011;39629;51.400;5.494;2024-02-21T08:11:50;9.93;;;3.20;;
47896;SDS011;39629;51.400;5.494;2024-02-21T08:16:52;7.93;;;3.45;;
47896;SDS011;39629;51.400;5.494;2024-02-21T08:21:55;7.30;;;2.85;;
47896;SDS011;39629;51.400;5.494;2024-02-21T08:26:58;6.55;;;2.95;;
47896;SDS011;39629;51.400;5.494;2024-02-21T08:32:00;8.05;;;3.40;;
47896;SDS011;39629;51.400;5.494;2024-02-21T08:37:02;5.32;;;2.72;;
47896;SDS011;39629;51.400;5.494;2024-02-21T08:42:06;8.68;;;3.22;;
47896;SDS011;39629;51.400;5.494;2024-02-21T08:47:08;6.57;;;3.03;;
47896;SDS011;39629;51.400;5.494;2024-02-21T08:52:10;7.95;;;3.30;;
47896;SDS011;39629;51.400;5.494;2024-02-21T08:57:13;6.38;;;3.05;;
47896;SDS011;39629;51.400;5.494;2024-02-21T09:02:15;6.40;;;3.00;;
47896;SDS011;39629;51.400;5.494;2024-02-21T09:07:17;5.38;;;3.00;;
47896;SDS011;39629;51.400;5.494;2024-02-21T09:12:20;8.73;;;3.65;;
47896;SDS011;39629;51.400;5.494;2024-02-21T09:17:22;6.93;;;3.30;;
47896;SDS011;39629;51.400;5.494;2024-02-21T09:22:25;10.07;;;3.55;;
47896;SDS011;39629;51.400;5.494;2024-02-21T09:27:28;8.55;;;3.42;;
47896;SDS011;39629;51.400;5.494;2024-02-21T09:32:30;8.85;;;3.53;;
47896;SDS011;39629;51.400;5.494;2024-02-21T09:37:32;7.93;;;2.95;;
47896;SDS011;39629;51.400;5.494;2024-02-21T09:42:38;7.78;;;3.60;;
47896;SDS011;39629;51.400;5.494;2024-02-21T09:47:43;9.35;;;3.78;;
47896;SDS011;39629;51.400;5.494;2024-02-21T09:52:51;7.20;;;3.38;;
47896;SDS011;39629;51.400;5.494;2024-02-21T09:57:57;10.52;;;2.65;;
47896;SDS011;39629;51.400;5.494;2024-02-21T10:03:00;11.50;;;2.97;;
47896;SDS011;39629;51.400;5.494;2024-02-21T10:08:13;10.77;;;3.13;;
47896;SDS011;39629;51.400;5.494;2024-02-21T10:13:24;9.85;;;3.08;;
47896;SDS011;39629;51.400;5.494;2024-02-21T10:18:26;8.77;;;3.25;;
47896;SDS011;39629;51.400;5.494;2024-02-21T10:23:28;9.10;;;2.75;;
47896;SDS011;39629;51.400;5.494;2024-02-21T10:28:32;7.78;;;2.80;;
47896;SDS011;39629;51.400;5.494;2024-02-21T10:33:34;8.48;;;2.80;;
47896;SDS011;39629;51.400;5.494;2024-02-21T10:38:36;6.25;;;2.90;;
47896;SDS011;39629;51.400;5.494;2024-02-21T10:43:40;9.27;;;2.80;;
47896;SDS011;39629;51.400;5.494;2024-02-21T10:48:43;5.50;;;2.63;;
47896;SDS011;39629;51.400;5.494;2024-02-21T10:53:48;7.85;;;2.65;;
47896;SDS011;39629;51.400;5.494;2024-02-21T10:59:00;6.65;;;2.70;;
47896;SDS011;39629;51.400;5.494;2024-02-21T11:04:04;7.25;;;2.70;;
47896;SDS011;39629;51.400;5.494;2024-02-21T11:09:07;6.55;;;2.33;;
47896;SDS011;39629;51.400;5.494;2024-02-21T11:14:17;6.93;;;2.40;;
47896;SDS011;39629;51.400;5.494;2024-02-21T11:19:20;9.13;;;2.80;;
47896;SDS011;39629;51.400;5.494;2024-02-21T11:24:27;6.05;;;2.30;;
47896;SDS011;39629;51.400;5.494;2024-02-21T11:29:31;8.98;;;2.50;;
47896;SDS011;39629;51.400;5.494;2024-02-21T11:34:33;8.60;;;2.15;;
47896;SDS011;39629;51.400;5.494;2024-02-21T11:39:35;7.22;;;2.33;;
47896;SDS011;39629;51.400;5.494;2024-02-21T11:44:39;5.80;;;2.40;;
47896;SDS011;39629;51.400;5.494;2024-02-21T11:49:43;8.57;;;2.55;;
47896;SDS011;39629;51.400;5.494;2024-02-21T11:54:45;5.68;;;2.65;;
47896;SDS011;39629;51.400;5.494;2024-02-21T11:59:49;7.03;;;2.25;;
47896;SDS011;39629;51.400;5.494;2024-02-21T12:04:55;7.10;;;2.30;;
47896;SDS011;39629;51.400;5.494;2024-02-21T12:09:58;5.95;;;2.10;;
47896;SDS011;39629;51.400;5.494;2024-02-21T12:15:01;9.03;;;2.80;;
47896;SDS011;39629;51.400;5.494;2024-02-21T12:20:05;8.00;;;2.47;;
47896;SDS011;39629;51.400;5.494;2024-02-21T12:25:15;7.18;;;2.60;;
47896;SDS011;39629;51.400;5.494;2024-02-21T12:30:20;5.72;;;2.10;;
47896;SDS011;39629;51.400;5.494;2024-02-21T12:35:22;6.10;;;2.38;;
47896;SDS011;39629;51.400;5.494;2024-02-21T12:40:24;5.90;;;2.17;;
47896;SDS011;39629;51.400;5.494;2024-02-21T12:45:33;6.00;;;1.90;;
47896;SDS011;39629;51.400;5.494;2024-02-21T12:50:36;8.18;;;2.25;;
47896;SDS011;39629;51.400;5.494;2024-02-21T12:55:38;6.28;;;1.90;;
47896;SDS011;39629;51.400;5.494;2024-02-21T13:00:41;7.90;;;2.00;;
47896;SDS011;39629;51.400;5.494;2024-02-21T13:05:43;6.07;;;1.90;;
47896;SDS011;39629;51.400;5.494;2024-02-21T13:10:45;8.38;;;2.28;;
47896;SDS011;39629;51.400;5.494;2024-02-21T13:15:49;5.68;;;2.00;;
47896;SDS011;39629;51.400;5.494;2024-02-21T13:20:51;5.43;;;1.63;;
47896;SDS011;39629;51.400;5.494;2024-02-21T13:25:53;4.75;;;1.98;;
47896;SDS011;39629;51.400;5.494;2024-02-21T13:30:56;4.75;;;1.60;;
47896;SDS011;39629;51.400;5.494;2024-02-21T13:35:58;4.00;;;1.70;;
47896;SDS011;39629;51.400;5.494;2024-02-21T13:40:59;4.95;;;1.67;;
47896;SDS011;39629;51.400;5.494;2024-02-21T13:46:03;5.05;;;1.70;;
47896;SDS011;39629;51.400;5.494;2024-02-21T13:51:11;4.90;;;1.80;;
47896;SDS011;39629;51.400;5.494;2024-02-21T13:56:13;3.72;;;1.65;;
47896;SDS011;39629;51.400;5.494;2024-02-21T14:01:16;3.00;;;1.60;;
47896;SDS011;39629;51.400;5.494;2024-02-21T14:06:18;4.07;;;1.63;;
47896;SDS011;39629;51.400;5.494;2024-02-21T14:11:20;5.72;;;1.90;;
47896;SDS011;39629;51.400;5.494;2024-02-21T14:16:23;5.53;;;1.60;;
47896;SDS011;39629;51.400;5.494;2024-02-21T14:21:25;4.47;;;1.42;;
47896;SDS011;39629;51.400;5.494;2024-02-21T14:26:26;3.38;;;1.52;;
47896;SDS011;39629;51.400;5.494;2024-02-21T14:31:30;6.10;;;2.40;;
47896;SDS011;39629;51.400;5.494;2024-02-21T14:36:33;5.35;;;1.88;;
47896;SDS011;39629;51.400;5.494;2024-02-21T14:41:35;4.05;;;2.17;;
47896;SDS011;39629;51.400;5.494;2024-02-21T14:46:38;6.05;;;1.90;;
47896;SDS011;39629;51.400;5.494;2024-02-21T14:51:40;5.13;;;1.83;;
47896;SDS011;39629;51.400;5.494;2024-02-21T14:56:42;3.85;;;1.70;;
47896;SDS011;39629;51.400;5.494;2024-02-21T15:01:45;6.05;;;1.98;;
47896;SDS011;39629;51.400;5.494;2024-02-21T15:06:47;11.47;;;4.27;;
47896;SDS011;39629;51.400;5.494;2024-02-21T15:11:49;3.90;;;1.65;;
47896;SDS011;39629;51.400;5.494;2024-02-21T15:16:52;6.00;;;1.90;;
47896;SDS011;39629;51.400;5.494;2024-02-21T15:21:54;5.47;;;1.92;;
47896;SDS011;39629;51.400;5.494;2024-02-21T15:26:56;3.22;;;1.80;;
47896;SDS011;39629;51.400;5.494;2024-02-21T15:31:59;6.40;;;1.90;;
47896;SDS011;39629;51.400;5.494;2024-02-21T15:37:01;5.65;;;1.88;;
47896;SDS011;39629;51.400;5.494;2024-02-21T15:42:04;6.68;;;1.90;;
47896;SDS011;39629;51.400;5.494;2024-02-21T15:47:08;5.43;;;1.95;;
47896;SDS011;39629;51.400;5.494;2024-02-21T15:52:10;3.90;;;1.85;;
47896;SDS011;39629;51.400;5.494;2024-02-21T15:57:12;5.60;;;2.20;;
47896;SDS011;39629;51.400;5.494;2024-02-21T16:02:16;3.75;;;1.80;;
47896;SDS011;39629;51.400;5.494;2024-02-21T16:07:18;5.28;;;2.00;;
47896;SDS011;39629;51.400;5.494;2024-02-21T16:12:19;5.07;;;2.00;;
47896;SDS011;39629;51.400;5.494;2024-02-21T16:17:25;6.07;;;2.00;;
47896;SDS011;39629;51.400;5.494;2024-02-21T16:22:26;5.88;;;2.22;;
47896;SDS011;39629;51.400;5.494;2024-02-21T16:27:29;7.05;;;2.40;;
47896;SDS011;39629;51.400;5.494;2024-02-21T16:32:32;6.10;;;2.15;;
47896;SDS011;39629;51.400;5.494;2024-02-21T16:37:36;5.78;;;2.55;;
47896;SDS011;39629;51.400;5.494;2024-02-21T16:42:39;6.03;;;2.20;;
47896;SDS011;39629;51.400;5.494;2024-02-21T16:47:42;8.73;;;2.72;;
47896;SDS011;39629;51.400;5.494;2024-02-21T16:52:44;5.80;;;2.60;;
47896;SDS011;39629;51.400;5.494;2024-02-21T16:57:48;6.22;;;2.38;;
47896;SDS011;39629;51.400;5.494;2024-02-21T17:02:51;7.05;;;2.42;;
47896;SDS011;39629;51.400;5.494;2024-02-21T17:07:53;7.10;;;2.55;;
47896;SDS011;39629;51.400;5.494;2024-02-21T17:12:58;5.30;;;2.70;;
47896;SDS011;39629;51.400;5.494;2024-02-21T17:18:03;6.45;;;2.50;;
47896;SDS011;39629;51.400;5.494;2024-02-21T17:23:05;6.77;;;2.67;;
47896;SDS011;39629;51.400;5.494;2024-02-21T17:28:06;7.53;;;2.70;;
47896;SDS011;39629;51.400;5.494;2024-02-21T17:33:10;7.40;;;2.55;;
47896;SDS011;39629;51.400;5.494;2024-02-21T17:38:11;8.10;;;2.35;;
47896;SDS011;39629;51.400;5.494;2024-02-21T17:43:13;5.18;;;2.85;;
47896;SDS011;39629;51.400;5.494;2024-02-21T17:48:16;7.25;;;2.22;;
47896;SDS011;39629;51.400;5.494;2024-02-21T17:53:18;7.67;;;2.93;;
47896;SDS011;39629;51.400;5.494;2024-02-21T17:58:21;8.95;;;2.70;;
47896;SDS011;39629;51.400;5.494;2024-02-21T18:03:24;5.80;;;2.78;;
47896;SDS011;39629;51.400;5.494;2024-02-21T18:08:30;7.43;;;3.03;;
47896;SDS011;39629;51.400;5.494;2024-02-21T18:13:32;7.20;;;3.15;;
47896;SDS011;39629;51.400;5.494;2024-02-21T18:18:35;8.73;;;2.80;;
47896;SDS011;39629;51.400;5.494;2024-02-21T18:23:38;5.88;;;2.75;;
47896;SDS011;39629;51.400;5.494;2024-02-21T18:28:40;5.65;;;2.60;;
47896;SDS011;39629;51.400;5.494;2024-02-21T18:33:44;6.03;;;2.70;;
47896;SDS011;39629;51.400;5.494;2024-02-21T18:38:46;5.45;;;2.72;;
47896;SDS011;39629;51.400;5.494;2024-02-21T18:43:48;5.65;;;2.97;;
47896;SDS011;39629;51.400;5.494;2024-02-21T18:48:51;9.52;;;3.22;;
47896;SDS011;39629;51.400;5.494;2024-02-21T18:53:54;7.15;;;3.00;;
47896;SDS011;39629;51.400;5.494;2024-02-21T18:58:56;6.75;;;2.72;;
47896;SDS011;39629;51.400;5.494;2024-02-21T19:04:00;6.70;;;2.38;;
47896;SDS011;39629;51.400;5.494;2024-02-21T19:09:02;7.07;;;3.05;;
47896;SDS011;39629;51.400;5.494;2024-02-21T19:14:04;4.30;;;2.95;;
47896;SDS011;39629;51.400;5.494;2024-02-21T19:19:07;6.05;;;2.88;;
47896;SDS011;39629;51.400;5.494;2024-02-21T19:24:09;6.18;;;2.95;;
47896;SDS011;39629;51.400;5.494;2024-02-21T19:29:11;5.78;;;2.50;;
47896;SDS011;39629;51.400;5.494;2024-02-21T19:34:14;5.07;;;2.45;;
47896;SDS011;39629;51.400;5.494;2024-02-21T19:39:16;5.32;;;2.38;;
47896;SDS011;39629;51.400;5.494;2024-02-21T19:44:17;6.35;;;2.80;;
47896;SDS011;39629;51.400;5.494;2024-02-21T19:49:23;4.38;;;2.30;;
47896;SDS011;39629;51.400;5.494;2024-02-21T19:54:25;4.93;;;2.38;;
47896;SDS011;39629;51.400;5.494;2024-02-21T19:59:26;7.95;;;2.13;;
47896;SDS011;39629;51.400;5.494;2024-02-21T20:04:30;4.80;;;2.20;;
47896;SDS011;39629;51.400;5.494;2024-02-21T20:09:31;5.40;;;2.17;;
47896;SDS011;39629;51.400;5.494;2024-02-21T20:14:33;5.82;;;2.20;;
47896;SDS011;39629;51.400;5.494;2024-02-21T20:19:36;3.50;;;1.33;;
47896;SDS011;39629;51.400;5.494;2024-02-21T20:24:38;3.40;;;2.17;;
47896;SDS011;39629;51.400;5.494;2024-02-21T20:29:40;3.35;;;1.80;;
47896;SDS011;39629;51.400;5.494;2024-02-21T20:34:43;2.67;;;1.73;;
47896;SDS011;39629;51.400;5.494;2024-02-21T20:39:45;4.00;;;2.50;;
47896;SDS011;39629;51.400;5.494;2024-02-21T20:44:47;2.53;;;1.60;;
47896;SDS011;39629;51.400;5.494;2024-02-21T20:49:50;3.13;;;1.50;;
47896;SDS011;39629;51.400;5.494;2024-02-21T20:54:53;2.88;;;1.48;;
47896;SDS011;39629;51.400;5.494;2024-02-21T20:59:58;2.78;;;1.70;;
47896;SDS011;39629;51.400;5.494;2024-02-21T21:05:01;2.60;;;1.45;;
47896;SDS011;39629;51.400;5.494;2024-02-21T21:10:03;3.03;;;1.65;;
47896;SDS011;39629;51.400;5.494;2024-02-21T21:15:07;3.08;;;1.63;;
47896;SDS011;39629;51.400;5.494;2024-02-21T21:20:11;2.35;;;1.40;;
47896;SDS011;39629;51.400;5.494;2024-02-21T21:25:17;2.22;;;1.25;;
47896;SDS011;39629;51.400;5.494;2024-02-21T21:30:19;2.13;;;1.17;;
47896;SDS011;39629;51.400;5.494;2024-02-21T21:35:22;1.92;;;1.13;;
47896;SDS011;39629;51.400;5.494;2024-02-21T21:40:26;3.05;;;1.40;;
47896;SDS011;39629;51.400;5.494;2024-02-21T21:45:29;2.78;;;1.20;;
47896;SDS011;39629;51.400;5.494;2024-02-21T21:50:32;3.03;;;1.27;;
47896;SDS011;39629;51.400;5.494;2024-02-21T21:55:35;2.17;;;1.17;;
47896;SDS011;39629;51.400;5.494;2024-02-21T22:00:38;1.60;;;1.13;;
47896;SDS011;39629;51.400;5.494;2024-02-21T22:05:41;1.92;;;1.38;;
47896;SDS011;39629;51.400;5.494;2024-02-21T22:10:43;2.03;;;1.27;;
47896;SDS011;39629;51.400;5.494;2024-02-21T22:15:45;2.72;;;1.45;;
47896;SDS011;39629;51.400;5.494;2024-02-21T22:20:49;2.70;;;1.10;;
47896;SDS011;39629;51.400;5.494;2024-02-21T22:25:51;1.88;;;1.20;;
47896;SDS011;39629;51.400;5.494;2024-02-21T22:30:53;1.90;;;1.10;;
47896;SDS011;39629;51.400;5.494;2024-02-21T22:35:56;1.88;;;1.20;;
47896;SDS011;39629;51.400;5.494;2024-02-21T22:40:57;3.22;;;1.35;;
47896;SDS011;39629;51.400;5.494;2024-02-21T22:45:59;1.40;;;1.10;;
47896;SDS011;39629;51.400;5.494;2024-02-21T22:51:02;3.05;;;1.20;;
47896;SDS011;39629;51.400;5.494;2024-02-21T22:56:05;2.22;;;1.30;;
47896;SDS011;39629;51.400;5.494;2024-02-21T23:01:09;2.67;;;1.20;;
47896;SDS011;39629;51.400;5.494;2024-02-21T23:06:13;2.60;;;1.23;;
47896;SDS011;39629;51.400;5.494;2024-02-21T23:11:15;2.42;;;1.20;;
47896;SDS011;39629;51.400;5.494;2024-02-21T23:16:17;2.60;;;1.10;;
47896;SDS011;39629;51.400;5.494;2024-02-21T23:21:20;2.65;;;1.35;;
47896;SDS011;39629;51.400;5.494;2024-02-21T23:26:25;1.92;;;1.27;;
47896;SDS011;39629;51.400;5.494;2024-02-21T23:31:30;2.97;;;1.40;;
47896;SDS011;39629;51.400;5.494;2024-02-21T23:36:33;2.25;;;1.38;;
47896;SDS011;39629;51.400;5.494;2024-02-21T23:41:35;2.60;;;1.60;;
47896;SDS011;39629;51.400;5.494;2024-02-21T23:46:36;2.58;;;1.88;;
47896;SDS011;39629;51.400;5.494;2024-02-21T23:51:40;2.28;;;1.60;;
47896;SDS011;39629;51.400;5.494;2024-02-21T23:56:41;2.90;;;2.05;;
